Time;durP1;ratioP1;P1;durP2;ratioP2;P2;SDS_P1;SDS_P2;PMS_P1;PMS_P2;Temp;Humidity;BMP_temperature;BMP_pressure;BME280_temperature;BME280_humidity;BME280_pressure;Samples;Min_cycle;Max_cycle;Signal;HPM_P1;HPM_P2
2022/01/30 00:01:11;;;;;;;12.20;5.70;;;;;;;2.24;85.13;97700.91;108726;1271;23413;-78
2022/01/30 00:03:38;;;;;;;10.90;6.20;;;;;;;2.28;85.10;97689.23;108567;1271;25547;-75
2022/01/30 00:06:04;;;;;;;11.00;6.60;;;;;;;2.32;85.24;97677.05;108411;1271;22611;-77
2022/01/30 00:08:31;;;;;;;11.60;6.00;;;;;;;2.33;85.41;97671.15;108436;1271;22719;-83
2022/01/30 00:11:06;;;;;;;8.80;5.10;;;;;;;2.35;85.39;97673.44;108408;1271;24466;-77
2022/01/30 00:13:34;;;;;;;8.60;4.60;;;;;;;2.34;85.26;97676.41;108396;1271;23436;-78
2022/01/30 00:16:05;;;;;;;9.30;4.30;;;;;;;2.32;85.20;97674.30;108437;1271;22595;-74
2022/01/30 00:23:57;;;;;;;10.70;4.70;;;;;;;2.33;85.30;97672.84;108421;1270;22869;-74
2022/01/30 00:26:29;;;;;;;10.00;5.30;;;;;;;2.34;85.45;97671.08;108409;1271;22564;-74
2022/01/30 00:28:57;;;;;;;7.90;4.50;;;;;;;2.38;85.62;97671.59;108440;1271;22648;-74
2022/01/30 00:31:26;;;;;;;8.20;4.40;;;;;;;2.39;85.73;97669.46;108470;1271;23969;-78
2022/01/30 00:33:54;;;;;;;11.40;5.80;;;;;;;2.38;85.73;97668.85;108456;1271;22928;-75
2022/01/30 00:36:21;;;;;;;10.20;4.60;;;;;;;2.37;85.73;97669.40;108482;1271;22585;-76
2022/01/30 00:38:48;;;;;;;10.40;5.60;;;;;;;2.37;85.68;97667.86;108389;1271;22574;-76
2022/01/30 00:41:15;;;;;;;8.40;4.80;;;;;;;2.40;85.26;97664.09;108406;1271;22613;-79
2022/01/30 00:43:42;;;;;;;9.70;5.40;;;;;;;2.45;85.26;97668.16;108451;1271;25523;-78
2022/01/30 00:46:09;;;;;;;9.30;5.10;;;;;;;2.47;85.42;97681.98;108412;1271;22698;-76
2022/01/30 00:48:36;;;;;;;8.40;4.90;;;;;;;2.51;85.64;97685.05;108414;1271;22622;-80
2022/01/30 00:51:03;;;;;;;8.00;3.70;;;;;;;2.54;85.94;97691.59;108405;1271;22552;-79
2022/01/30 00:53:30;;;;;;;8.50;4.90;;;;;;;2.53;85.90;97701.42;108443;1270;24083;-81
2022/01/30 00:55:57;;;;;;;7.80;4.30;;;;;;;2.52;85.78;97702.48;108429;1271;22682;-76
2022/01/30 00:58:24;;;;;;;8.50;4.20;;;;;;;2.56;85.42;97702.50;108415;1270;23244;-80
2022/01/30 01:00:51;;;;;;;7.80;4.50;;;;;;;2.59;85.55;97705.82;108469;1270;22613;-81
2022/01/30 01:03:18;;;;;;;9.20;5.90;;;;;;;2.61;85.87;97709.51;108474;1271;22589;-77
2022/01/30 01:05:45;;;;;;;9.30;5.70;;;;;;;2.62;86.04;97710.45;108442;1271;22547;-77
2022/01/30 01:08:32;;;;;;;9.70;5.50;;;;;;;2.63;86.10;97718.16;108438;1270;22640;-77
2022/01/30 01:11:27;;;;;;;9.10;6.50;;;;;;;2.58;86.08;97712.21;108404;1271;22623;-81
2022/01/30 01:24:50;;;;;;;6.20;2.90;;;;;;;2.62;86.55;97698.80;108412;1270;22551;-75
2022/01/30 01:27:17;;;;;;;4.60;2.40;;;;;;;2.61;86.60;97704.19;108441;1271;22697;-77
2022/01/30 01:29:44;;;;;;;4.00;1.60;;;;;;;2.65;86.56;97703.81;108439;1271;24261;-75
2022/01/30 01:32:11;;;;;;;5.40;2.00;;;;;;;2.71;86.68;97713.50;108403;1271;22576;-76
2022/01/30 01:34:40;;;;;;;6.80;2.00;;;;;;;2.76;86.71;97722.90;108418;1271;22579;-74
2022/01/30 01:37:10;;;;;;;5.90;1.80;;;;;;;2.82;86.68;97726.55;108413;1271;25490;-78
2022/01/30 01:39:37;;;;;;;6.00;1.80;;;;;;;2.83;86.58;97716.34;108397;1271;25505;-81
2022/01/30 01:42:04;;;;;;;6.30;1.80;;;;;;;2.82;86.32;97711.56;108459;1271;22549;-78
2022/01/30 01:44:45;;;;;;;8.00;1.80;;;;;;;2.85;85.84;97700.41;108430;1271;25369;-76
2022/01/30 01:47:14;;;;;;;5.50;1.60;;;;;;;2.87;85.45;97686.71;108448;1271;22616;-79
2022/01/30 01:49:41;;;;;;;6.60;2.40;;;;;;;2.85;85.49;97685.27;108447;1271;22658;-74
2022/01/30 01:52:21;;;;;;;6.20;1.50;;;;;;;2.82;85.27;97693.67;108427;1271;23028;-77
2022/01/30 01:54:55;;;;;;;6.30;1.70;;;;;;;2.78;85.16;97698.38;108447;1271;22555;-74
2022/01/30 01:57:24;;;;;;;6.40;1.90;;;;;;;2.76;85.06;97699.16;108469;1270;22772;-77
2022/01/30 01:59:52;;;;;;;8.30;1.90;;;;;;;2.76;84.79;97692.09;108424;1271;22555;-76
2022/01/30 02:02:22;;;;;;;7.00;2.10;;;;;;;2.81;84.63;97684.80;108409;1270;22582;-77
2022/01/30 02:04:49;;;;;;;8.80;2.10;;;;;;;2.82;84.87;97675.14;108494;1271;22646;-77
2022/01/30 02:09:43;;;;;;;7.10;1.70;;;;;;;2.82;84.32;97671.67;108456;1271;22562;-77
2022/01/30 02:12:21;;;;;;;6.70;1.80;;;;;;;2.82;83.80;97668.39;108427;1271;22537;-76
2022/01/30 02:15:06;;;;;;;7.20;1.50;;;;;;;2.86;82.89;97661.31;108447;1271;25474;-77
2022/01/30 02:25:42;;;;;;;5.10;1.30;;;;;;;2.93;81.07;97672.35;108238;1271;22691;-77
2022/01/30 02:28:13;;;;;;;7.40;1.40;;;;;;;2.91;80.66;97661.06;108448;1271;22598;-76
2022/01/30 02:30:48;;;;;;;12.70;1.80;;;;;;;2.93;80.16;97653.92;108458;1271;22570;-79
2022/01/30 02:33:15;;;;;;;9.70;1.60;;;;;;;2.98;79.94;97649.36;108460;1271;22641;-79
2022/01/30 02:35:42;;;;;;;11.20;2.00;;;;;;;2.99;79.90;97640.06;108353;1271;23209;-76
2022/01/30 02:38:09;;;;;;;7.80;1.60;;;;;;;2.98;79.54;97645.26;108333;1271;24219;-80
2022/01/30 02:40:40;;;;;;;6.70;1.30;;;;;;;2.98;78.48;97636.64;108344;1271;25453;-78
2022/01/30 02:43:07;;;;;;;8.50;2.10;;;;;;;2.95;78.39;97639.54;108371;1271;22543;-82
2022/01/30 02:45:37;;;;;;;6.50;1.70;;;;;;;2.94;78.37;97631.38;108354;1271;22897;-79
2022/01/30 02:50:49;;;;;;;7.00;1.30;;;;;;;3.03;77.68;97628.00;108330;1271;25217;-81
2022/01/30 02:53:16;;;;;;;7.70;1.30;;;;;;;3.06;76.87;97629.73;108315;1271;22553;-75
2022/01/30 02:55:43;;;;;;;7.30;1.60;;;;;;;3.05;76.26;97628.04;108340;1271;22623;-79
2022/01/30 02:58:10;;;;;;;5.30;1.10;;;;;;;3.04;76.28;97616.05;108348;1271;22655;-78
2022/01/30 03:00:37;;;;;;;7.90;1.40;;;;;;;3.03;75.46;97621.79;108325;1271;22551;-76
2022/01/30 03:03:04;;;;;;;10.10;1.50;;;;;;;3.05;74.70;97609.97;108364;1271;24322;-78
2022/01/30 03:05:31;;;;;;;8.00;1.20;;;;;;;3.06;74.37;97612.85;108364;1271;25309;-75
2022/01/30 03:07:58;;;;;;;7.60;1.60;;;;;;;3.14;73.98;97607.29;108385;1271;22580;-78
2022/01/30 03:10:25;;;;;;;5.40;1.40;;;;;;;3.15;74.50;97605.52;108360;1271;22587;-79
2022/01/30 03:12:52;;;;;;;7.30;1.40;;;;;;;3.13;73.51;97601.98;108377;1271;22535;-82
2022/01/30 03:15:19;;;;;;;6.30;1.30;;;;;;;3.09;73.19;97601.50;108597;1271;22588;-78
2022/01/30 03:17:46;;;;;;;8.10;1.60;;;;;;;3.09;72.19;97587.95;108678;1271;22554;-82
2022/01/30 03:20:13;;;;;;;6.10;1.20;;;;;;;3.08;71.18;97590.20;108572;1271;24938;-78
2022/01/30 03:22:40;;;;;;;7.00;1.40;;;;;;;3.15;69.62;97590.53;108636;1271;22604;-82
2022/01/30 03:25:07;;;;;;;5.90;1.00;;;;;;;3.14;70.29;97587.16;108647;1271;22556;-81
2022/01/30 03:27:34;;;;;;;6.30;1.20;;;;;;;3.18;69.71;97581.25;108678;1271;22701;-83
2022/01/30 03:30:06;;;;;;;8.60;1.00;;;;;;;3.24;68.79;97585.08;108668;1271;22660;-78
2022/01/30 03:32:35;;;;;;;7.40;1.20;;;;;;;3.25;68.51;97589.48;108700;1271;22551;-81
2022/01/30 03:35:02;;;;;;;9.90;1.40;;;;;;;3.24;68.56;97574.90;108745;1270;22554;-82
2022/01/30 03:37:29;;;;;;;7.10;1.30;;;;;;;3.25;69.03;97589.51;108758;1271;22623;-81
2022/01/30 03:39:56;;;;;;;9.40;1.30;;;;;;;3.25;68.46;97589.84;108672;1271;22586;-82
2022/01/30 03:42:23;;;;;;;8.00;1.30;;;;;;;3.30;67.79;97592.64;108681;1271;22559;-80
2022/01/30 03:44:50;;;;;;;5.10;1.20;;;;;;;3.34;67.63;97597.80;108721;1270;22627;-82
2022/01/30 03:47:17;;;;;;;8.70;1.20;;;;;;;3.37;68.20;97606.23;108654;1271;24501;-75
2022/01/30 03:49:44;;;;;;;4.60;1.00;;;;;;;3.35;69.21;97608.92;108657;1271;22701;-75
2022/01/30 03:52:11;;;;;;;5.20;1.10;;;;;;;3.31;69.42;97623.77;108627;1271;22543;-75
2022/01/30 03:54:38;;;;;;;9.60;2.10;;;;;;;3.25;69.72;97640.96;108609;1271;22561;-75
2022/01/30 03:57:05;;;;;;;10.10;2.00;;;;;;;3.19;70.44;97652.08;108603;1271;22543;-81
2022/01/30 03:59:32;;;;;;;3.60;1.20;;;;;;;3.08;71.50;97662.62;108598;1271;22546;-77
2022/01/30 04:01:59;;;;;;;2.70;0.80;;;;;;;2.92;73.40;97657.63;108605;1271;22614;-78
2022/01/30 04:04:27;;;;;;;5.10;1.10;;;;;;;2.60;75.08;97675.66;108611;1271;22553;-76
2022/01/30 04:06:57;;;;;;;6.50;1.30;;;;;;;2.31;76.09;97686.69;108607;1271;24301;-79
2022/01/30 04:09:26;;;;;;;5.80;1.00;;;;;;;2.00;76.90;97658.42;108613;1271;22538;-82
2022/01/30 04:11:54;;;;;;;6.90;1.20;;;;;;;1.86;76.90;97640.52;108639;1271;22548;-80
2022/01/30 04:14:21;;;;;;;5.10;1.20;;;;;;;1.73;77.29;97646.25;108611;1271;22548;-78
2022/01/30 04:16:48;;;;;;;6.20;1.00;;;;;;;1.71;77.46;97665.08;108615;1271;22627;-78
2022/01/30 04:19:15;;;;;;;4.70;1.10;;;;;;;1.70;77.65;97661.00;108600;1271;22544;-77
2022/01/30 04:21:42;;;;;;;5.00;1.20;;;;;;;1.64;77.78;97659.73;108618;1271;22557;-78
2022/01/30 04:24:09;;;;;;;7.20;1.50;;;;;;;1.65;77.57;97649.73;108614;1271;22610;-77
2022/01/30 04:26:36;;;;;;;7.80;1.20;;;;;;;1.66;77.44;97641.98;108581;1271;22546;-76
2022/01/30 04:29:04;;;;;;;5.10;1.00;;;;;;;1.66;77.44;97628.23;108588;1271;22554;-80
2022/01/30 04:31:31;;;;;;;4.60;1.20;;;;;;;1.75;77.23;97622.34;108614;1271;24421;-81
2022/01/30 04:33:59;;;;;;;9.30;1.40;;;;;;;1.82;77.20;97620.43;108577;1271;26631;-79
2022/01/30 04:36:31;;;;;;;7.60;1.40;;;;;;;1.87;77.37;97616.13;108536;1271;24102;-79
2022/01/30 04:39:12;;;;;;;6.40;1.30;;;;;;;1.89;77.40;97618.75;108564;1271;22585;-76
2022/01/30 05:00:27;;;;;;;6.10;1.50;;;;;;;2.05;76.50;97577.65;108556;1271;22557;-75
2022/01/30 05:03:08;;;;;;;10.30;1.80;;;;;;;2.05;76.35;97577.63;108538;1271;22565;-76
2022/01/30 05:08:11;;;;;;;10.30;1.20;;;;;;;2.12;75.63;97578.48;108519;1271;22555;-78
2022/01/30 05:10:38;;;;;;;8.40;1.90;;;;;;;2.20;75.51;97579.48;108540;1271;22651;-77
2022/01/30 05:13:10;;;;;;;4.80;1.10;;;;;;;2.25;75.43;97571.17;108537;1271;22553;-79
2022/01/30 05:15:37;;;;;;;9.90;1.50;;;;;;;2.26;74.74;97563.19;108547;1271;22552;-80
2022/01/30 05:18:05;;;;;;;4.60;1.10;;;;;;;2.30;74.15;97557.20;108562;1271;22647;-77
2022/01/30 05:20:34;;;;;;;7.10;1.30;;;;;;;2.33;73.20;97555.16;108615;1270;22616;-79
2022/01/30 05:23:01;;;;;;;9.50;1.60;;;;;;;2.36;73.12;97552.77;108603;1271;22560;-77
2022/01/30 05:25:28;;;;;;;4.90;1.20;;;;;;;2.37;72.56;97548.80;108615;1271;22546;-78
2022/01/30 05:27:56;;;;;;;7.80;1.60;;;;;;;2.42;72.59;97544.89;108582;1271;22554;-76
2022/01/30 05:30:23;;;;;;;9.20;1.50;;;;;;;2.48;72.77;97544.78;108596;1270;22547;-75
2022/01/30 05:32:50;;;;;;;8.70;1.10;;;;;;;2.52;72.48;97537.34;108602;1271;22632;-77
2022/01/30 05:35:17;;;;;;;5.00;1.20;;;;;;;2.53;72.01;97517.74;108610;1271;22537;-76
2022/01/30 05:37:44;;;;;;;8.30;1.60;;;;;;;2.55;71.39;97515.73;108600;1271;22623;-79
2022/01/30 05:40:12;;;;;;;7.00;1.20;;;;;;;2.54;70.94;97504.06;108616;1271;22543;-79
2022/01/30 05:42:39;;;;;;;5.80;1.30;;;;;;;2.55;70.95;97503.68;108605;1271;22694;-79
2022/01/30 05:47:58;;;;;;;6.70;1.30;;;;;;;2.65;69.50;97484.80;108615;1270;22630;-75
2022/01/30 05:50:25;;;;;;;6.20;1.60;;;;;;;2.67;69.61;97494.67;108631;1271;22655;-81
2022/01/30 05:52:52;;;;;;;7.00;1.40;;;;;;;2.74;69.88;97495.68;108623;1271;22555;-77
2022/01/30 05:55:20;;;;;;;6.50;1.20;;;;;;;2.81;69.10;97485.20;108629;1271;22565;-82
2022/01/30 05:57:47;;;;;;;7.20;1.80;;;;;;;2.86;67.86;97486.81;108643;1271;22555;-78
2022/01/30 06:00:15;;;;;;;7.80;2.20;;;;;;;2.85;68.24;97484.27;108637;1271;25313;-79
2022/01/30 06:02:46;;;;;;;8.20;2.30;;;;;;;2.85;67.82;97477.08;108623;1271;22693;-76
2022/01/30 06:05:16;;;;;;;9.20;1.20;;;;;;;2.86;68.40;97468.73;108609;1271;22546;-77
2022/01/30 06:07:50;;;;;;;9.40;1.40;;;;;;;2.89;67.10;97474.23;108582;1271;22713;-79
2022/01/30 06:10:18;;;;;;;10.10;1.40;;;;;;;2.89;67.19;97481.99;108405;1271;22725;-81
2022/01/30 06:12:45;;;;;;;6.50;1.10;;;;;;;2.90;67.44;97490.70;108431;1270;22624;-76
2022/01/30 06:15:13;;;;;;;5.50;1.00;;;;;;;2.94;68.04;97482.79;108451;1271;22572;-79
2022/01/30 06:17:42;;;;;;;4.80;1.30;;;;;;;2.97;68.47;97479.31;108479;1271;22544;-78
2022/01/30 06:20:11;;;;;;;8.30;1.60;;;;;;;2.93;68.08;97485.05;108458;1271;22600;-79
2022/01/30 06:22:39;;;;;;;7.10;1.70;;;;;;;2.94;67.82;97493.24;108544;1270;22570;-82
2022/01/30 06:25:06;;;;;;;6.00;1.40;;;;;;;2.95;67.45;97487.54;108532;1271;22684;-80
2022/01/30 06:27:33;;;;;;;4.10;1.10;;;;;;;2.92;66.94;97480.46;108512;1271;22552;-76
2022/01/30 06:30:01;;;;;;;5.30;1.20;;;;;;;2.92;67.13;97477.36;108452;1271;22554;-77
2022/01/30 06:32:28;;;;;;;3.50;1.00;;;;;;;2.91;67.12;97478.61;108464;1271;25319;-82
2022/01/30 06:34:55;;;;;;;6.10;1.30;;;;;;;2.89;67.59;97478.58;108425;1268;22766;-78
2022/01/30 06:37:22;;;;;;;4.80;1.00;;;;;;;2.86;67.50;97477.01;108465;1271;22657;-80
2022/01/30 06:39:49;;;;;;;3.30;0.90;;;;;;;2.87;67.26;97479.17;108444;1271;22620;-81
2022/01/30 06:42:16;;;;;;;5.20;0.90;;;;;;;2.92;67.97;97493.86;108439;1271;25458;-81
2022/01/30 06:44:44;;;;;;;5.50;1.20;;;;;;;2.97;67.69;97487.44;108426;1270;22542;-81
2022/01/30 06:47:12;;;;;;;8.50;1.90;;;;;;;2.97;67.18;97485.33;108435;1271;22644;-77
2022/01/30 06:49:39;;;;;;;5.20;1.40;;;;;;;2.98;67.38;97486.30;108573;1271;26663;-80
2022/01/30 06:52:09;;;;;;;8.40;1.30;;;;;;;3.02;66.65;97466.69;108509;1271;22739;-78
2022/01/30 06:54:36;;;;;;;6.20;1.20;;;;;;;3.02;66.40;97465.64;108454;1271;22627;-81
2022/01/30 06:57:04;;;;;;;4.60;1.10;;;;;;;3.03;66.18;97458.89;108457;1271;23531;-79
2022/01/30 06:59:31;;;;;;;6.70;1.80;;;;;;;3.03;66.07;97463.36;108459;1271;22623;-77
2022/01/30 07:01:58;;;;;;;5.90;1.50;;;;;;;3.04;65.76;97470.70;108476;1271;22552;-74
2022/01/30 07:04:25;;;;;;;9.60;1.70;;;;;;;3.07;65.71;97462.98;108437;1271;22607;-74
2022/01/30 07:06:52;;;;;;;5.20;1.80;;;;;;;3.05;66.01;97466.20;108447;1271;22614;-76
2022/01/30 07:09:19;;;;;;;6.00;1.20;;;;;;;3.06;66.08;97459.79;108434;1271;22548;-74
2022/01/30 07:11:46;;;;;;;5.90;1.30;;;;;;;3.12;66.03;97457.56;108450;1270;22711;-74
2022/01/30 07:14:13;;;;;;;7.90;1.20;;;;;;;3.15;65.91;97443.10;108456;1271;24485;-74
2022/01/30 07:16:40;;;;;;;4.30;1.00;;;;;;;3.15;65.40;97446.89;108444;1271;22688;-79
2022/01/30 07:19:07;;;;;;;5.00;1.40;;;;;;;3.17;65.14;97451.10;108440;1271;22738;-81
2022/01/30 07:21:34;;;;;;;9.70;1.90;;;;;;;3.18;65.05;97458.59;108468;1271;22551;-81
2022/01/30 07:24:01;;;;;;;10.90;1.50;;;;;;;3.21;64.58;97454.80;108480;1271;24511;-81
2022/01/30 07:26:27;;;;;;;6.30;1.70;;;;;;;3.20;64.72;97468.65;108468;1271;22714;-81
2022/01/30 07:28:54;;;;;;;6.20;1.70;;;;;;;3.21;64.23;97458.77;108450;1271;23238;-82
2022/01/30 07:31:21;;;;;;;7.00;1.70;;;;;;;3.22;64.52;97467.70;108867;1271;22671;-82
2022/01/30 07:33:48;;;;;;;8.10;2.40;;;;;;;3.20;64.58;97444.73;108436;1271;22720;-82
2022/01/30 07:36:15;;;;;;;5.90;1.80;;;;;;;3.21;64.43;97435.25;108479;1271;22545;-83
2022/01/30 07:38:43;;;;;;;6.90;2.10;;;;;;;3.19;64.90;97440.31;108457;1271;22673;-78
2022/01/30 07:41:10;;;;;;;6.80;1.90;;;;;;;3.21;64.74;97448.27;108503;1271;22606;-81
2022/01/30 07:43:37;;;;;;;10.00;2.40;;;;;;;3.22;64.42;97454.09;108451;1270;22635;-80
2022/01/30 07:46:04;;;;;;;6.20;1.90;;;;;;;3.22;64.15;97456.16;108491;1271;22626;-79
2022/01/30 07:48:32;;;;;;;8.20;2.10;;;;;;;3.24;64.27;97439.86;108481;1271;22560;-80
2022/01/30 07:50:59;;;;;;;9.40;1.90;;;;;;;3.24;64.44;97441.73;108486;1271;22595;-81
2022/01/30 07:53:26;;;;;;;9.20;2.20;;;;;;;3.18;64.79;97438.27;108478;1271;22746;-81
2022/01/30 07:55:54;;;;;;;9.10;2.60;;;;;;;3.14;65.33;97433.01;108469;1271;22605;-77
2022/01/30 07:58:21;;;;;;;10.20;2.70;;;;;;;3.11;65.03;97449.69;108426;1271;22552;-81
2022/01/30 08:00:49;;;;;;;10.20;2.70;;;;;;;3.11;64.95;97457.60;108421;1271;22723;-78
2022/01/30 08:03:16;;;;;;;8.30;2.10;;;;;;;3.12;65.11;97482.71;108431;1271;22573;-81
2022/01/30 08:05:43;;;;;;;7.80;2.40;;;;;;;3.16;64.88;97486.55;108432;1271;22719;-79
2022/01/30 08:08:10;;;;;;;13.00;3.00;;;;;;;3.16;65.45;97469.55;108433;1271;24298;-78
2022/01/30 08:10:37;;;;;;;7.10;1.90;;;;;;;3.19;66.03;97476.25;108426;1271;22682;-80
2022/01/30 08:13:04;;;;;;;8.70;1.80;;;;;;;3.24;66.02;97474.63;108459;1271;23231;-81
2022/01/30 08:15:30;;;;;;;7.80;1.70;;;;;;;3.22;66.24;97486.58;108491;1270;22547;-81
2022/01/30 08:17:57;;;;;;;9.20;2.40;;;;;;;3.22;66.17;97483.66;108453;1271;22660;-80
2022/01/30 08:20:27;;;;;;;9.10;2.30;;;;;;;3.28;65.53;97490.91;108435;1271;24201;-80
2022/01/30 08:22:55;;;;;;;7.00;1.90;;;;;;;3.30;65.41;97488.20;108392;1271;22535;-82
2022/01/30 08:25:24;;;;;;;6.20;1.90;;;;;;;3.35;65.50;97488.45;108398;1271;22844;-82
2022/01/30 08:27:53;;;;;;;6.90;1.70;;;;;;;3.36;66.05;97495.13;108484;1271;22560;-80
2022/01/30 08:30:21;;;;;;;5.80;1.70;;;;;;;3.38;66.68;97486.39;108447;1271;22648;-73
2022/01/30 08:32:49;;;;;;;6.00;2.30;;;;;;;3.43;66.93;97492.71;108505;1271;22605;-75
2022/01/30 08:35:17;;;;;;;9.00;1.90;;;;;;;3.43;67.29;97492.67;108396;1271;24643;-73
2022/01/30 08:37:45;;;;;;;7.00;2.00;;;;;;;3.46;67.12;97495.11;108442;1271;25452;-74
2022/01/30 08:40:18;;;;;;;9.70;2.20;;;;;;;3.47;67.41;97496.60;108382;1271;24472;-74
2022/01/30 08:42:47;;;;;;;8.60;2.20;;;;;;;3.48;67.74;97493.48;108394;1271;22654;-73
2022/01/30 08:45:16;;;;;;;9.00;2.60;;;;;;;3.45;67.78;97491.21;108433;1271;23219;-78
2022/01/30 08:47:45;;;;;;;11.70;2.90;;;;;;;3.47;67.80;97498.70;108331;1271;22634;-77
2022/01/30 08:50:14;;;;;;;7.20;1.80;;;;;;;3.44;67.55;97494.52;108375;1268;22652;-82
2022/01/30 08:52:42;;;;;;;8.10;2.40;;;;;;;3.47;67.61;97492.83;108437;1271;22635;-82
2022/01/30 08:55:11;;;;;;;9.00;3.00;;;;;;;3.42;67.73;97492.94;108442;1271;22613;-81
2022/01/30 08:57:38;;;;;;;9.70;2.60;;;;;;;3.39;67.47;97482.08;108456;1271;22755;-82
2022/01/30 09:00:08;;;;;;;6.80;2.40;;;;;;;3.32;67.04;97479.52;108498;1271;22575;-81
2022/01/30 09:02:36;;;;;;;7.50;1.70;;;;;;;3.33;66.40;97478.61;108866;1271;22701;-79
2022/01/30 09:05:05;;;;;;;8.00;2.20;;;;;;;3.35;66.14;97478.65;108415;1271;22562;-81
2022/01/30 09:07:32;;;;;;;10.80;2.50;;;;;;;3.34;66.37;97479.22;108440;1271;22701;-80
2022/01/30 09:09:59;;;;;;;8.50;3.10;;;;;;;3.37;66.17;97470.61;108392;1271;22618;-82
2022/01/30 09:12:26;;;;;;;12.90;2.80;;;;;;;3.38;65.35;97471.27;108439;1271;24777;-80
2022/01/30 09:14:54;;;;;;;8.00;2.70;;;;;;;3.40;65.18;97478.04;108407;1271;22587;-78
2022/01/30 09:17:22;;;;;;;15.00;2.80;;;;;;;3.42;64.56;97477.75;108396;1271;22628;-79
2022/01/30 09:19:49;;;;;;;6.40;1.80;;;;;;;3.42;64.62;97480.38;108386;1271;25948;-80
2022/01/30 09:22:18;;;;;;;10.50;1.60;;;;;;;3.47;64.23;97480.77;108449;1271;22503;-83
2022/01/30 09:24:47;;;;;;;12.90;2.30;;;;;;;3.50;64.17;97494.06;108453;1271;25254;-82
2022/01/30 09:27:15;;;;;;;10.30;2.60;;;;;;;3.52;63.51;97482.55;108468;1271;25408;-83
2022/01/30 09:29:44;;;;;;;15.00;3.40;;;;;;;3.50;63.90;97476.27;108422;1271;25272;-82
2022/01/30 09:32:11;;;;;;;6.60;1.90;;;;;;;3.55;63.78;97488.08;108423;1271;25682;-79
2022/01/30 09:34:38;;;;;;;9.40;1.90;;;;;;;3.56;63.46;97496.61;108393;1271;23793;-80
2022/01/30 09:37:06;;;;;;;8.50;2.40;;;;;;;3.54;63.30;97485.52;108373;1271;24323;-74
2022/01/30 09:39:34;;;;;;;11.10;3.60;;;;;;;3.52;63.59;97487.71;108340;1271;25273;-83
2022/01/30 09:42:01;;;;;;;8.80;2.50;;;;;;;3.56;63.64;97490.23;108460;1271;22797;-79
2022/01/30 09:44:29;;;;;;;7.30;2.20;;;;;;;3.58;63.37;97499.47;108383;1271;22691;-81
2022/01/30 09:46:56;;;;;;;12.10;1.90;;;;;;;3.68;62.83;97489.04;108366;1271;23035;-81
2022/01/30 09:49:26;;;;;;;8.70;2.40;;;;;;;3.73;62.43;97482.92;108382;1271;25358;-81
2022/01/30 09:51:55;;;;;;;11.90;3.60;;;;;;;3.72;62.48;97474.88;108422;1271;24260;-78
2022/01/30 09:54:22;;;;;;;9.20;2.90;;;;;;;3.76;62.66;97482.61;108464;1271;22647;-79
2022/01/30 09:56:49;;;;;;;14.70;4.40;;;;;;;3.78;62.32;97477.12;108462;1271;22583;-79
2022/01/30 09:59:16;;;;;;;10.90;3.10;;;;;;;3.84;62.00;97468.70;108460;1271;22686;-79
2022/01/30 10:01:43;;;;;;;10.70;2.90;;;;;;;3.96;62.49;97470.42;108498;1271;22685;-83
2022/01/30 10:04:10;;;;;;;12.70;3.10;;;;;;;4.05;61.81;97468.52;108455;1271;22546;-79
2022/01/30 10:06:59;;;;;;;9.90;3.30;;;;;;;4.05;61.84;97455.80;108454;1271;25558;-79
2022/01/30 10:09:31;;;;;;;10.20;2.40;;;;;;;4.04;61.07;97450.85;108448;1271;24335;-79
2022/01/30 10:12:14;;;;;;;14.60;3.40;;;;;;;4.02;61.03;97437.33;108453;1271;22717;-82
2022/01/30 10:14:59;;;;;;;17.30;3.20;;;;;;;4.00;61.20;97427.64;108446;1271;22554;-82
2022/01/30 10:17:40;;;;;;;10.90;2.80;;;;;;;4.04;61.56;97439.30;108441;1271;22554;-82
2022/01/30 10:20:12;;;;;;;9.30;3.10;;;;;;;4.03;61.55;97453.63;108426;1271;24280;-80
2022/01/30 10:22:49;;;;;;;13.00;3.60;;;;;;;4.05;62.00;97455.45;108416;1271;26876;-82
2022/01/30 10:25:31;;;;;;;10.00;2.30;;;;;;;4.10;61.19;97460.45;108432;1270;22760;-79
2022/01/30 10:28:16;;;;;;;12.00;3.90;;;;;;;4.03;62.01;97448.83;108411;1271;24503;-80
2022/01/30 10:30:48;;;;;;;10.00;3.00;;;;;;;4.03;61.95;97451.05;108431;1271;22575;-79
2022/01/30 10:33:17;;;;;;;12.00;2.60;;;;;;;3.97;62.72;97472.63;108418;1271;21849;-81
2022/01/30 10:35:45;;;;;;;9.30;2.70;;;;;;;3.95;63.19;97483.74;108453;1271;22607;-82
2022/01/30 10:38:20;;;;;;;13.30;3.40;;;;;;;3.82;64.33;97500.48;108411;1271;24400;-84
2022/01/30 10:40:58;;;;;;;12.20;4.00;;;;;;;3.81;64.70;97503.16;108405;1271;22556;-82
2022/01/30 10:43:51;;;;;;;8.80;2.10;;;;;;;3.70;65.95;97513.05;108504;1271;23382;-82
2022/01/30 10:46:27;;;;;;;7.40;1.50;;;;;;;3.55;66.51;97501.83;108453;1271;22626;-82
2022/01/30 10:48:58;;;;;;;7.40;2.10;;;;;;;3.39;66.69;97513.21;108474;1271;23504;-79
2022/01/30 10:51:30;;;;;;;10.30;2.70;;;;;;;3.27;66.60;97514.05;108398;1271;24377;-81
2022/01/30 10:54:04;;;;;;;5.40;1.10;;;;;;;3.23;67.43;97527.66;108514;1271;22504;-80
2022/01/30 10:56:32;;;;;;;12.30;2.00;;;;;;;3.22;67.83;97519.48;108495;1271;22626;-82
2022/01/30 10:59:11;;;;;;;12.40;3.10;;;;;;;3.11;68.91;97527.10;108478;1271;22556;-82
2022/01/30 11:01:51;;;;;;;17.40;4.60;;;;;;;2.85;70.60;97544.61;108628;1270;22591;-79
2022/01/30 11:04:21;;;;;;;7.80;2.60;;;;;;;2.74;71.22;97547.10;108724;1271;22550;-79
2022/01/30 11:06:49;;;;;;;6.90;1.40;;;;;;;2.75;71.83;97552.39;108598;1271;22559;-82
2022/01/30 11:09:21;;;;;;;7.40;2.00;;;;;;;2.82;72.40;97540.48;108499;1270;22586;-81
2022/01/30 11:11:54;;;;;;;10.70;2.40;;;;;;;2.81;72.76;97549.33;108472;1271;25450;-81
2022/01/30 11:14:34;;;;;;;11.90;3.00;;;;;;;2.74;73.27;97558.45;108440;1271;22574;-84
2022/01/30 11:17:05;;;;;;;14.10;3.00;;;;;;;2.62;73.92;97545.81;108446;1271;23478;-83
2022/01/30 11:19:38;;;;;;;8.80;2.10;;;;;;;2.57;74.75;97544.86;108399;1271;22651;-78
2022/01/30 11:22:11;;;;;;;10.40;2.70;;;;;;;2.51;75.52;97543.60;108404;1271;24131;-83
2022/01/30 11:25:03;;;;;;;11.60;3.50;;;;;;;2.40;75.77;97563.40;108393;1271;24393;-78
2022/01/30 11:27:31;;;;;;;14.60;3.90;;;;;;;2.30;76.48;97557.19;108411;1271;22583;-82
2022/01/30 11:30:00;;;;;;;15.50;4.50;;;;;;;2.25;76.55;97559.30;108375;1271;26737;-76
2022/01/30 11:32:28;;;;;;;10.50;2.80;;;;;;;2.29;77.29;97555.54;108405;1271;22880;-78
2022/01/30 11:34:56;;;;;;;14.40;4.30;;;;;;;2.32;77.43;97562.76;108378;1271;25525;-76
2022/01/30 11:37:29;;;;;;;19.00;4.30;;;;;;;2.34;77.81;97557.70;108337;1271;22622;-77
2022/01/30 11:39:58;;;;;;;10.30;3.40;;;;;;;2.39;77.93;97561.55;108361;1271;27921;-81
2022/01/30 11:42:45;;;;;;;14.80;4.50;;;;;;;2.42;77.68;97551.77;108363;1271;22549;-74
2022/01/30 11:45:19;;;;;;;16.80;5.70;;;;;;;2.47;77.71;97544.52;108378;1271;25380;-76
2022/01/30 11:47:52;;;;;;;16.40;4.70;;;;;;;2.49;77.21;97549.70;108386;1271;23939;-75
2022/01/30 11:50:30;;;;;;;12.20;3.50;;;;;;;2.58;76.97;97542.04;108428;1270;22590;-77
2022/01/30 11:53:09;;;;;;;13.80;3.90;;;;;;;2.63;76.75;97538.37;108358;1271;22538;-77
2022/01/30 11:55:42;;;;;;;13.70;4.70;;;;;;;2.65;76.49;97540.84;108347;1271;22641;-79
2022/01/30 11:58:46;;;;;;;13.00;4.00;;;;;;;2.70;75.88;97538.69;108383;1271;23530;-81
2022/01/30 12:01:25;;;;;;;11.40;3.60;;;;;;;2.69;75.51;97550.42;108370;1271;22709;-76
2022/01/30 12:03:59;;;;;;;10.00;3.10;;;;;;;2.73;75.23;97544.39;108349;1271;22557;-78
2022/01/30 12:06:26;;;;;;;13.00;3.30;;;;;;;2.84;75.03;97549.31;108297;1274;23099;-79
2022/01/30 12:08:59;;;;;;;10.00;3.30;;;;;;;2.88;74.52;97546.89;108289;1274;22893;-75
2022/01/30 12:11:38;;;;;;;;;;;;;;;2.84;74.50;97551.17;108330;1274;27769;-80
2022/01/30 12:14:29;;;;;;;11.10;3.70;;;;;;;2.83;74.30;97550.25;108280;1274;23554;-80
2022/01/30 12:17:02;;;;;;;8.70;2.80;;;;;;;2.84;73.84;97541.27;108308;1274;26332;-79
2022/01/30 12:22:17;;;;;;;11.10;3.20;;;;;;;2.94;74.07;97540.54;108301;1274;22746;-81
2022/01/30 12:24:49;;;;;;;8.10;2.30;;;;;;;2.93;73.74;97544.20;108278;1274;24375;-79
2022/01/30 12:27:17;;;;;;;10.50;2.50;;;;;;;2.98;73.26;97534.64;108263;1274;22561;-80
2022/01/30 12:29:51;;;;;;;16.30;4.90;;;;;;;2.98;73.07;97540.17;108263;1274;22570;-78
2022/01/30 12:32:22;;;;;;;11.00;2.80;;;;;;;3.06;72.98;97536.13;108540;1274;22577;-79
2022/01/30 12:34:55;;;;;;;13.40;3.60;;;;;;;3.21;72.69;97537.59;108272;1273;22543;-78
2022/01/30 12:37:26;;;;;;;;;;;;;;;3.18;72.37;97539.62;108333;1274;22544;-76
2022/01/30 12:39:54;;;;;;;12.80;3.30;;;;;;;3.17;72.24;97539.33;108749;1273;22605;-74